sensor_id;sensor_type;location;lat;lon;timestamp;P1;durP1;ratioP1;P2;durP2;ratioP2
44670;SDS011;48397;53.016;-2.260;2023-02-03T00:02:37;2.42;;;0.95;;
44670;SDS011;48397;53.016;-2.260;2023-02-03T00:07:21;3.50;;;1.00;;
44670;SDS011;48397;53.016;-2.260;2023-02-03T00:12:17;2.42;;;0.80;;
44670;SDS011;48397;53.016;-2.260;2023-02-03T00:14:45;2.38;;;1.20;;
44670;SDS011;48397;53.016;-2.260;2023-02-03T00:17:12;2.50;;;0.85;;
44670;SDS011;48397;53.016;-2.260;2023-02-03T00:19:41;3.08;;;0.80;;
44670;SDS011;48397;53.016;-2.260;2023-02-03T00:22:09;4.22;;;1.00;;
44670;SDS011;48397;53.016;-2.260;2023-02-03T00:24:37;4.88;;;1.00;;
44670;SDS011;48397;53.016;-2.260;2023-02-03T00:27:04;5.22;;;1.10;;
44670;SDS011;48397;53.016;-2.260;2023-02-03T00:29:32;2.70;;;1.10;;
44670;SDS011;48397;53.016;-2.260;2023-02-03T00:32:03;3.90;;;1.02;;
44670;SDS011;48397;53.016;-2.260;2023-02-03T00:34:31;3.70;;;1.00;;
44670;SDS011;48397;53.016;-2.260;2023-02-03T00:36:59;3.30;;;0.73;;
44670;SDS011;48397;53.016;-2.260;2023-02-03T00:39:28;5.13;;;0.95;;
44670;SDS011;48397;53.016;-2.260;2023-02-03T00:41:56;1.63;;;0.60;;
44670;SDS011;48397;53.016;-2.260;2023-02-03T00:44:25;2.33;;;1.02;;
44670;SDS011;48397;53.016;-2.260;2023-02-03T00:46:55;2.33;;;0.85;;
44670;SDS011;48397;53.016;-2.260;2023-02-03T00:49:23;4.70;;;1.30;;
44670;SDS011;48397;53.016;-2.260;2023-02-03T00:51:51;3.78;;;1.35;;
44670;SDS011;48397;53.016;-2.260;2023-02-03T00:54:20;2.47;;;0.85;;
44670;SDS011;48397;53.016;-2.260;2023-02-03T00:56:48;3.88;;;0.90;;
44670;SDS011;48397;53.016;-2.260;2023-02-03T00:59:16;7.38;;;1.25;;
44670;SDS011;48397;53.016;-2.260;2023-02-03T01:01:44;4.15;;;1.23;;
44670;SDS011;48397;53.016;-2.260;2023-02-03T01:06:40;3.10;;;0.70;;
44670;SDS011;48397;53.016;-2.260;2023-02-03T01:09:07;3.95;;;1.08;;
44670;SDS011;48397;53.016;-2.260;2023-02-03T01:11:35;4.90;;;1.20;;
44670;SDS011;48397;53.016;-2.260;2023-02-03T01:14:03;1.92;;;0.90;;
44670;SDS011;48397;53.016;-2.260;2023-02-03T01:16:31;9.50;;;1.40;;
44670;SDS011;48397;53.016;-2.260;2023-02-03T01:19:03;3.20;;;1.10;;
44670;SDS011;48397;53.016;-2.260;2023-02-03T01:21:31;3.83;;;0.95;;
44670;SDS011;48397;53.016;-2.260;2023-02-03T01:24:01;2.85;;;0.90;;
44670;SDS011;48397;53.016;-2.260;2023-02-03T01:26:30;5.13;;;1.15;;
44670;SDS011;48397;53.016;-2.260;2023-02-03T01:28:59;4.75;;;1.10;;
44670;SDS011;48397;53.016;-2.260;2023-02-03T01:31:29;4.03;;;0.90;;
44670;SDS011;48397;53.016;-2.260;2023-02-03T01:34:07;2.28;;;0.77;;
44670;SDS011;48397;53.016;-2.260;2023-02-03T01:36:39;6.80;;;1.33;;
44670;SDS011;48397;53.016;-2.260;2023-02-03T01:39:07;5.93;;;1.42;;
44670;SDS011;48397;53.016;-2.260;2023-02-03T01:41:37;2.85;;;1.00;;
44670;SDS011;48397;53.016;-2.260;2023-02-03T01:47:02;3.15;;;1.00;;
44670;SDS011;48397;53.016;-2.260;2023-02-03T01:49:34;3.47;;;1.00;;
44670;SDS011;48397;53.016;-2.260;2023-02-03T01:52:03;4.78;;;1.45;;
44670;SDS011;48397;53.016;-2.260;2023-02-03T01:54:32;7.10;;;1.40;;
44670;SDS011;48397;53.016;-2.260;2023-02-03T01:57:06;10.65;;;1.42;;
44670;SDS011;48397;53.016;-2.260;2023-02-03T01:59:41;5.72;;;1.40;;
44670;SDS011;48397;53.016;-2.260;2023-02-03T02:02:10;4.32;;;0.93;;
44670;SDS011;48397;53.016;-2.260;2023-02-03T02:04:45;4.28;;;1.50;;
44670;SDS011;48397;53.016;-2.260;2023-02-03T02:07:35;3.83;;;1.02;;
44670;SDS011;48397;53.016;-2.260;2023-02-03T02:10:04;6.63;;;1.33;;
44670;SDS011;48397;53.016;-2.260;2023-02-03T02:12:32;4.43;;;1.20;;
44670;SDS011;48397;53.016;-2.260;2023-02-03T02:15:00;10.75;;;1.55;;
44670;SDS011;48397;53.016;-2.260;2023-02-03T02:20:13;3.78;;;1.20;;
44670;SDS011;48397;53.016;-2.260;2023-02-03T02:23:07;6.32;;;1.48;;
44670;SDS011;48397;53.016;-2.260;2023-02-03T02:25:47;5.93;;;1.15;;
44670;SDS011;48397;53.016;-2.260;2023-02-03T02:33:57;2.60;;;1.10;;
44670;SDS011;48397;53.016;-2.260;2023-02-03T02:39:14;6.20;;;1.70;;
44670;SDS011;48397;53.016;-2.260;2023-02-03T02:44:48;4.00;;;1.48;;
44670;SDS011;48397;53.016;-2.260;2023-02-03T02:47:21;3.33;;;1.10;;
44670;SDS011;48397;53.016;-2.260;2023-02-03T02:52:41;11.05;;;1.85;;
44670;SDS011;48397;53.016;-2.260;2023-02-03T02:55:25;5.18;;;1.25;;
44670;SDS011;48397;53.016;-2.260;2023-02-03T02:58:02;1.20;;;0.90;;
44670;SDS011;48397;53.016;-2.260;2023-02-03T03:00:34;4.22;;;1.27;;
44670;SDS011;48397;53.016;-2.260;2023-02-03T03:03:12;1.90;;;1.02;;
44670;SDS011;48397;53.016;-2.260;2023-02-03T03:05:42;2.75;;;1.20;;
44670;SDS011;48397;53.016;-2.260;2023-02-03T03:08:17;5.43;;;1.40;;
44670;SDS011;48397;53.016;-2.260;2023-02-03T03:10:49;3.20;;;1.15;;
44670;SDS011;48397;53.016;-2.260;2023-02-03T03:13:19;3.92;;;1.13;;
44670;SDS011;48397;53.016;-2.260;2023-02-03T03:15:52;4.03;;;1.00;;
44670;SDS011;48397;53.016;-2.260;2023-02-03T03:18:26;4.50;;;1.17;;
44670;SDS011;48397;53.016;-2.260;2023-02-03T03:20:58;3.65;;;1.05;;
44670;SDS011;48397;53.016;-2.260;2023-02-03T03:23:34;5.00;;;1.10;;
44670;SDS011;48397;53.016;-2.260;2023-02-03T03:26:10;2.47;;;0.95;;
44670;SDS011;48397;53.016;-2.260;2023-02-03T03:28:43;4.78;;;1.10;;
44670;SDS011;48397;53.016;-2.260;2023-02-03T03:31:16;4.07;;;1.00;;
44670;SDS011;48397;53.016;-2.260;2023-02-03T03:33:45;2.63;;;0.95;;
44670;SDS011;48397;53.016;-2.260;2023-02-03T03:36:27;3.95;;;1.02;;
44670;SDS011;48397;53.016;-2.260;2023-02-03T03:39:04;2.95;;;1.05;;
44670;SDS011;48397;53.016;-2.260;2023-02-03T03:41:55;4.07;;;1.10;;
44670;SDS011;48397;53.016;-2.260;2023-02-03T03:44:42;3.53;;;1.30;;
44670;SDS011;48397;53.016;-2.260;2023-02-03T03:47:34;3.47;;;0.90;;
44670;SDS011;48397;53.016;-2.260;2023-02-03T03:50:09;3.05;;;0.90;;
44670;SDS011;48397;53.016;-2.260;2023-02-03T03:52:40;4.88;;;1.23;;
44670;SDS011;48397;53.016;-2.260;2023-02-03T03:55:11;4.10;;;1.10;;
44670;SDS011;48397;53.016;-2.260;2023-02-03T03:57:44;8.18;;;1.85;;
44670;SDS011;48397;53.016;-2.260;2023-02-03T04:00:45;5.75;;;1.10;;
44670;SDS011;48397;53.016;-2.260;2023-02-03T04:03:24;3.17;;;1.23;;
44670;SDS011;48397;53.016;-2.260;2023-02-03T04:05:59;5.10;;;1.30;;
44670;SDS011;48397;53.016;-2.260;2023-02-03T04:08:27;2.65;;;1.00;;
44670;SDS011;48397;53.016;-2.260;2023-02-03T04:13:22;3.45;;;1.13;;
44670;SDS011;48397;53.016;-2.260;2023-02-03T04:15:50;6.70;;;1.10;;
44670;SDS011;48397;53.016;-2.260;2023-02-03T04:18:18;5.10;;;1.17;;
44670;SDS011;48397;53.016;-2.260;2023-02-03T04:23:14;2.92;;;1.13;;
44670;SDS011;48397;53.016;-2.260;2023-02-03T04:25:42;3.72;;;1.10;;
44670;SDS011;48397;53.016;-2.260;2023-02-03T04:28:13;5.10;;;0.93;;
44670;SDS011;48397;53.016;-2.260;2023-02-03T04:30:40;5.03;;;1.50;;
44670;SDS011;48397;53.016;-2.260;2023-02-03T04:33:08;4.03;;;1.27;;
44670;SDS011;48397;53.016;-2.260;2023-02-03T04:35:36;5.63;;;1.85;;
44670;SDS011;48397;53.016;-2.260;2023-02-03T04:38:04;5.45;;;1.33;;
44670;SDS011;48397;53.016;-2.260;2023-02-03T04:43:05;3.85;;;1.20;;
44670;SDS011;48397;53.016;-2.260;2023-02-03T04:45:33;3.60;;;1.27;;
44670;SDS011;48397;53.016;-2.260;2023-02-03T04:48:01;6.93;;;1.40;;
44670;SDS011;48397;53.016;-2.260;2023-02-03T04:50:31;1.52;;;0.90;;
44670;SDS011;48397;53.016;-2.260;2023-02-03T04:52:59;7.53;;;1.42;;
44670;SDS011;48397;53.016;-2.260;2023-02-03T04:55:27;5.78;;;1.27;;
44670;SDS011;48397;53.016;-2.260;2023-02-03T05:00:24;4.57;;;1.17;;
44670;SDS011;48397;53.016;-2.260;2023-02-03T05:02:54;5.68;;;1.65;;
44670;SDS011;48397;53.016;-2.260;2023-02-03T05:05:21;7.22;;;1.33;;
44670;SDS011;48397;53.016;-2.260;2023-02-03T05:07:49;2.90;;;1.10;;
44670;SDS011;48397;53.016;-2.260;2023-02-03T05:10:17;4.32;;;1.00;;
44670;SDS011;48397;53.016;-2.260;2023-02-03T05:12:46;2.25;;;0.80;;
44670;SDS011;48397;53.016;-2.260;2023-02-03T05:15:14;2.53;;;1.00;;
44670;SDS011;48397;53.016;-2.260;2023-02-03T05:17:42;2.60;;;1.10;;
44670;SDS011;48397;53.016;-2.260;2023-02-03T05:20:10;5.05;;;2.15;;
44670;SDS011;48397;53.016;-2.260;2023-02-03T05:22:38;1.55;;;1.08;;
44670;SDS011;48397;53.016;-2.260;2023-02-03T05:27:37;2.60;;;0.93;;
44670;SDS011;48397;53.016;-2.260;2023-02-03T05:30:06;3.60;;;0.90;;
44670;SDS011;48397;53.016;-2.260;2023-02-03T05:32:35;2.55;;;1.20;;
44670;SDS011;48397;53.016;-2.260;2023-02-03T05:35:03;3.35;;;0.95;;
44670;SDS011;48397;53.016;-2.260;2023-02-03T05:39:58;4.25;;;0.90;;
44670;SDS011;48397;53.016;-2.260;2023-02-03T05:42:47;2.45;;;0.82;;
44670;SDS011;48397;53.016;-2.260;2023-02-03T05:45:16;3.50;;;0.98;;
44670;SDS011;48397;53.016;-2.260;2023-02-03T05:50:11;1.65;;;0.70;;
44670;SDS011;48397;53.016;-2.260;2023-02-03T05:52:39;4.10;;;0.90;;
44670;SDS011;48397;53.016;-2.260;2023-02-03T05:55:07;1.90;;;0.90;;
44670;SDS011;48397;53.016;-2.260;2023-02-03T05:57:36;3.88;;;1.10;;
44670;SDS011;48397;53.016;-2.260;2023-02-03T06:00:05;2.90;;;0.88;;
44670;SDS011;48397;53.016;-2.260;2023-02-03T06:02:37;6.35;;;0.88;;
44670;SDS011;48397;53.016;-2.260;2023-02-03T06:05:05;3.88;;;0.80;;
44670;SDS011;48397;53.016;-2.260;2023-02-03T06:07:34;4.18;;;1.25;;
44670;SDS011;48397;53.016;-2.260;2023-02-03T06:10:01;3.03;;;0.95;;
44670;SDS011;48397;53.016;-2.260;2023-02-03T06:12:29;1.55;;;0.88;;
44670;SDS011;48397;53.016;-2.260;2023-02-03T06:14:57;2.97;;;0.88;;
44670;SDS011;48397;53.016;-2.260;2023-02-03T06:17:24;1.40;;;0.60;;
44670;SDS011;48397;53.016;-2.260;2023-02-03T06:19:52;1.75;;;0.80;;
44670;SDS011;48397;53.016;-2.260;2023-02-03T06:22:20;1.35;;;0.60;;
44670;SDS011;48397;53.016;-2.260;2023-02-03T06:24:48;2.42;;;0.80;;
44670;SDS011;48397;53.016;-2.260;2023-02-03T06:27:17;2.53;;;0.75;;
44670;SDS011;48397;53.016;-2.260;2023-02-03T06:29:44;2.75;;;0.85;;
44670;SDS011;48397;53.016;-2.260;2023-02-03T06:32:12;4.03;;;0.57;;
44670;SDS011;48397;53.016;-2.260;2023-02-03T06:34:40;2.88;;;0.80;;
44670;SDS011;48397;53.016;-2.260;2023-02-03T06:37:08;3.65;;;0.90;;
44670;SDS011;48397;53.016;-2.260;2023-02-03T06:39:36;2.60;;;0.90;;
44670;SDS011;48397;53.016;-2.260;2023-02-03T06:42:03;4.88;;;1.02;;
44670;SDS011;48397;53.016;-2.260;2023-02-03T06:44:34;4.22;;;0.85;;
44670;SDS011;48397;53.016;-2.260;2023-02-03T06:47:02;2.05;;;0.95;;
44670;SDS011;48397;53.016;-2.260;2023-02-03T06:49:29;1.70;;;0.70;;
44670;SDS011;48397;53.016;-2.260;2023-02-03T06:51:58;4.60;;;1.45;;
44670;SDS011;48397;53.016;-2.260;2023-02-03T06:54:27;1.50;;;0.73;;
44670;SDS011;48397;53.016;-2.260;2023-02-03T06:56:55;1.80;;;0.60;;
44670;SDS011;48397;53.016;-2.260;2023-02-03T06:59:23;5.00;;;0.90;;
44670;SDS011;48397;53.016;-2.260;2023-02-03T07:01:50;3.65;;;1.15;;
44670;SDS011;48397;53.016;-2.260;2023-02-03T07:04:19;2.53;;;0.90;;
44670;SDS011;48397;53.016;-2.260;2023-02-03T07:06:47;2.22;;;0.90;;
44670;SDS011;48397;53.016;-2.260;2023-02-03T07:09:14;4.32;;;1.02;;
44670;SDS011;48397;53.016;-2.260;2023-02-03T07:11:42;1.65;;;0.90;;
44670;SDS011;48397;53.016;-2.260;2023-02-03T07:14:10;3.47;;;0.70;;
44670;SDS011;48397;53.016;-2.260;2023-02-03T07:16:37;2.40;;;0.80;;
44670;SDS011;48397;53.016;-2.260;2023-02-03T07:19:05;4.15;;;0.95;;
44670;SDS011;48397;53.016;-2.260;2023-02-03T07:21:33;2.05;;;0.80;;
44670;SDS011;48397;53.016;-2.260;2023-02-03T07:26:28;3.15;;;0.75;;
44670;SDS011;48397;53.016;-2.260;2023-02-03T07:28:57;2.20;;;0.80;;
44670;SDS011;48397;53.016;-2.260;2023-02-03T07:31:26;3.80;;;0.80;;
44670;SDS011;48397;53.016;-2.260;2023-02-03T07:33:54;1.80;;;0.75;;
44670;SDS011;48397;53.016;-2.260;2023-02-03T07:36:23;4.93;;;0.70;;
44670;SDS011;48397;53.016;-2.260;2023-02-03T07:38:50;4.18;;;0.90;;
44670;SDS011;48397;53.016;-2.260;2023-02-03T07:41:18;1.20;;;0.52;;
44670;SDS011;48397;53.016;-2.260;2023-02-03T07:43:46;3.00;;;0.98;;
44670;SDS011;48397;53.016;-2.260;2023-02-03T07:46:14;5.15;;;0.80;;
44670;SDS011;48397;53.016;-2.260;2023-02-03T07:48:43;1.38;;;0.65;;
44670;SDS011;48397;53.016;-2.260;2023-02-03T07:51:10;1.88;;;0.80;;
44670;SDS011;48397;53.016;-2.260;2023-02-03T07:53:38;2.63;;;0.85;;
44670;SDS011;48397;53.016;-2.260;2023-02-03T07:56:08;1.75;;;0.90;;
44670;SDS011;48397;53.016;-2.260;2023-02-03T07:58:39;3.63;;;1.00;;
44670;SDS011;48397;53.016;-2.260;2023-02-03T08:01:11;6.15;;;0.98;;
44670;SDS011;48397;53.016;-2.260;2023-02-03T08:03:41;1.50;;;0.80;;
44670;SDS011;48397;53.016;-2.260;2023-02-03T08:06:09;3.17;;;0.77;;
44670;SDS011;48397;53.016;-2.260;2023-02-03T08:08:37;2.25;;;0.80;;
44670;SDS011;48397;53.016;-2.260;2023-02-03T08:11:07;3.03;;;0.80;;
44670;SDS011;48397;53.016;-2.260;2023-02-03T08:13:35;2.40;;;1.00;;
44670;SDS011;48397;53.016;-2.260;2023-02-03T08:16:02;2.80;;;0.60;;
44670;SDS011;48397;53.016;-2.260;2023-02-03T08:18:31;1.88;;;0.90;;
44670;SDS011;48397;53.016;-2.260;2023-02-03T08:20:58;3.15;;;0.90;;
44670;SDS011;48397;53.016;-2.260;2023-02-03T08:25:54;3.67;;;1.20;;
44670;SDS011;48397;53.016;-2.260;2023-02-03T08:28:21;2.55;;;0.73;;
44670;SDS011;48397;53.016;-2.260;2023-02-03T08:30:49;2.50;;;0.88;;
44670;SDS011;48397;53.016;-2.260;2023-02-03T08:33:18;3.20;;;0.98;;
44670;SDS011;48397;53.016;-2.260;2023-02-03T08:35:46;4.47;;;1.77;;
44670;SDS011;48397;53.016;-2.260;2023-02-03T08:38:17;2.58;;;1.10;;
44670;SDS011;48397;53.016;-2.260;2023-02-03T08:40:44;4.45;;;0.90;;
44670;SDS011;48397;53.016;-2.260;2023-02-03T08:45:40;5.38;;;1.10;;
44670;SDS011;48397;53.016;-2.260;2023-02-03T08:48:08;2.70;;;1.00;;
44670;SDS011;48397;53.016;-2.260;2023-02-03T08:50:36;3.97;;;0.95;;
44670;SDS011;48397;53.016;-2.260;2023-02-03T08:53:05;2.65;;;1.10;;
44670;SDS011;48397;53.016;-2.260;2023-02-03T08:55:33;4.13;;;1.20;;
44670;SDS011;48397;53.016;-2.260;2023-02-03T08:58:01;2.35;;;0.90;;
44670;SDS011;48397;53.016;-2.260;2023-02-03T09:00:28;2.47;;;0.82;;
44670;SDS011;48397;53.016;-2.260;2023-02-03T09:02:56;4.90;;;1.02;;
44670;SDS011;48397;53.016;-2.260;2023-02-03T09:05:24;1.45;;;0.77;;
44670;SDS011;48397;53.016;-2.260;2023-02-03T09:07:51;3.33;;;1.08;;
44670;SDS011;48397;53.016;-2.260;2023-02-03T09:10:19;4.78;;;1.20;;
44670;SDS011;48397;53.016;-2.260;2023-02-03T09:12:48;5.18;;;0.98;;
44670;SDS011;48397;53.016;-2.260;2023-02-03T09:15:16;3.60;;;1.10;;
44670;SDS011;48397;53.016;-2.260;2023-02-03T09:17:45;2.67;;;1.08;;
44670;SDS011;48397;53.016;-2.260;2023-02-03T09:20:13;4.20;;;1.23;;
44670;SDS011;48397;53.016;-2.260;2023-02-03T09:22:41;7.43;;;1.20;;
44670;SDS011;48397;53.016;-2.260;2023-02-03T09:25:08;3.40;;;1.10;;
44670;SDS011;48397;53.016;-2.260;2023-02-03T09:27:36;6.43;;;1.15;;
44670;SDS011;48397;53.016;-2.260;2023-02-03T09:30:04;2.65;;;0.88;;
44670;SDS011;48397;53.016;-2.260;2023-02-03T09:32:32;4.75;;;1.40;;
44670;SDS011;48397;53.016;-2.260;2023-02-03T09:35:00;1.73;;;1.13;;
44670;SDS011;48397;53.016;-2.260;2023-02-03T09:37:30;4.38;;;1.42;;
44670;SDS011;48397;53.016;-2.260;2023-02-03T09:39:58;3.88;;;1.30;;
44670;SDS011;48397;53.016;-2.260;2023-02-03T09:45:06;3.10;;;1.00;;
44670;SDS011;48397;53.016;-2.260;2023-02-03T09:48:20;5.97;;;1.67;;
44670;SDS011;48397;53.016;-2.260;2023-02-03T09:50:49;5.53;;;1.67;;
44670;SDS011;48397;53.016;-2.260;2023-02-03T09:53:28;3.88;;;1.20;;
44670;SDS011;48397;53.016;-2.260;2023-02-03T09:56:01;4.40;;;1.27;;
44670;SDS011;48397;53.016;-2.260;2023-02-03T09:58:32;5.93;;;1.65;;
44670;SDS011;48397;53.016;-2.260;2023-02-03T10:01:01;6.05;;;1.45;;
44670;SDS011;48397;53.016;-2.260;2023-02-03T10:03:43;3.58;;;1.30;;
44670;SDS011;48397;53.016;-2.260;2023-02-03T10:20:00;4.85;;;1.00;;
44670;SDS011;48397;53.016;-2.260;2023-02-03T10:22:33;2.67;;;1.10;;
44670;SDS011;48397;53.016;-2.260;2023-02-03T10:28:03;6.05;;;1.10;;
44670;SDS011;48397;53.016;-2.260;2023-02-03T10:30:53;3.45;;;1.20;;
44670;SDS011;48397;53.016;-2.260;2023-02-03T10:33:26;2.58;;;1.08;;
44670;SDS011;48397;53.016;-2.260;2023-02-03T10:36:41;3.25;;;1.20;;
44670;SDS011;48397;53.016;-2.260;2023-02-03T10:41:45;3.92;;;1.48;;
44670;SDS011;48397;53.016;-2.260;2023-02-03T10:44:13;2.00;;;1.20;;
44670;SDS011;48397;53.016;-2.260;2023-02-03T10:46:41;5.38;;;1.50;;
44670;SDS011;48397;53.016;-2.260;2023-02-03T10:49:11;2.28;;;1.30;;
44670;SDS011;48397;53.016;-2.260;2023-02-03T10:51:49;3.08;;;1.40;;
44670;SDS011;48397;53.016;-2.260;2023-02-03T10:54:25;3.85;;;1.35;;
44670;SDS011;48397;53.016;-2.260;2023-02-03T10:56:57;5.13;;;1.50;;
44670;SDS011;48397;53.016;-2.260;2023-02-03T10:59:32;4.40;;;1.60;;
44670;SDS011;48397;53.016;-2.260;2023-02-03T11:02:06;6.88;;;1.83;;
44670;SDS011;48397;53.016;-2.260;2023-02-03T11:04:36;4.13;;;1.95;;
44670;SDS011;48397;53.016;-2.260;2023-02-03T11:07:08;5.03;;;1.70;;
44670;SDS011;48397;53.016;-2.260;2023-02-03T11:09:52;3.97;;;1.70;;
44670;SDS011;48397;53.016;-2.260;2023-02-03T11:12:21;7.07;;;1.70;;
44670;SDS011;48397;53.016;-2.260;2023-02-03T11:14:49;3.25;;;1.30;;
44670;SDS011;48397;53.016;-2.260;2023-02-03T11:19:52;2.38;;;1.00;;
44670;SDS011;48397;53.016;-2.260;2023-02-03T11:22:27;2.53;;;0.77;;
44670;SDS011;48397;53.016;-2.260;2023-02-03T11:25:03;1.27;;;0.70;;
44670;SDS011;48397;53.016;-2.260;2023-02-03T11:27:42;5.65;;;0.70;;
44670;SDS011;48397;53.016;-2.260;2023-02-03T11:32:45;2.80;;;0.80;;
44670;SDS011;48397;53.016;-2.260;2023-02-03T11:35:18;1.45;;;0.80;;
44670;SDS011;48397;53.016;-2.260;2023-02-03T11:37:51;4.03;;;1.30;;
44670;SDS011;48397;53.016;-2.260;2023-02-03T12:09:22;1.98;;;0.60;;
44670;SDS011;48397;53.016;-2.260;2023-02-03T12:17:55;1.38;;;0.63;;
44670;SDS011;48397;53.016;-2.260;2023-02-03T12:20:40;0.57;;;0.50;;
44670;SDS011;48397;53.016;-2.260;2023-02-03T12:26:04;2.45;;;0.90;;
44670;SDS011;48397;53.016;-2.260;2023-02-03T12:34:20;2.97;;;0.80;;
44670;SDS011;48397;53.016;-2.260;2023-02-03T12:37:16;1.70;;;0.68;;
44670;SDS011;48397;53.016;-2.260;2023-02-03T12:39:50;4.97;;;1.10;;
44670;SDS011;48397;53.016;-2.260;2023-02-03T12:42:22;3.13;;;1.13;;
44670;SDS011;48397;53.016;-2.260;2023-02-03T12:44:57;2.67;;;0.95;;
44670;SDS011;48397;53.016;-2.260;2023-02-03T12:53:04;3.55;;;0.80;;
44670;SDS011;48397;53.016;-2.260;2023-02-03T12:55:49;1.05;;;0.60;;
44670;SDS011;48397;53.016;-2.260;2023-02-03T12:58:34;1.10;;;0.85;;
44670;SDS011;48397;53.016;-2.260;2023-02-03T13:01:11;2.80;;;0.98;;
44670;SDS011;48397;53.016;-2.260;2023-02-03T13:03:49;1.70;;;0.73;;
44670;SDS011;48397;53.016;-2.260;2023-02-03T13:06:38;3.10;;;0.85;;
44670;SDS011;48397;53.016;-2.260;2023-02-03T13:09:21;3.65;;;0.98;;
44670;SDS011;48397;53.016;-2.260;2023-02-03T13:17:11;3.60;;;0.98;;
44670;SDS011;48397;53.016;-2.260;2023-02-03T13:20:20;5.88;;;1.30;;
44670;SDS011;48397;53.016;-2.260;2023-02-03T13:22:51;1.58;;;0.82;;
44670;SDS011;48397;53.016;-2.260;2023-02-03T13:25:24;3.30;;;0.80;;
44670;SDS011;48397;53.016;-2.260;2023-02-03T13:33:28;0.90;;;0.68;;
44670;SDS011;48397;53.016;-2.260;2023-02-03T13:36:27;0.85;;;0.50;;
44670;SDS011;48397;53.016;-2.260;2023-02-03T13:39:30;2.45;;;0.80;;
44670;SDS011;48397;53.016;-2.260;2023-02-03T13:41:54;0.75;;;0.47;;
44670;SDS011;48397;53.016;-2.260;2023-02-03T13:44:36;2.92;;;0.63;;
44670;SDS011;48397;53.016;-2.260;2023-02-03T13:47:05;2.72;;;1.05;;
44670;SDS011;48397;53.016;-2.260;2023-02-03T13:49:42;3.10;;;1.10;;
44670;SDS011;48397;53.016;-2.260;2023-02-03T13:52:25;2.88;;;1.40;;
44670;SDS011;48397;53.016;-2.260;2023-02-03T13:54:59;3.58;;;1.38;;
44670;SDS011;48397;53.016;-2.260;2023-02-03T13:57:30;2.63;;;1.10;;
44670;SDS011;48397;53.016;-2.260;2023-02-03T14:00:01;3.70;;;1.10;;
44670;SDS011;48397;53.016;-2.260;2023-02-03T14:02:53;1.35;;;0.90;;
44670;SDS011;48397;53.016;-2.260;2023-02-03T14:16:42;3.38;;;1.20;;
44670;SDS011;48397;53.016;-2.260;2023-02-03T14:24:20;5.18;;;1.30;;
44670;SDS011;48397;53.016;-2.260;2023-02-03T14:26:50;5.07;;;1.23;;
44670;SDS011;48397;53.016;-2.260;2023-02-03T14:29:25;13.18;;;1.60;;
44670;SDS011;48397;53.016;-2.260;2023-02-03T14:32:10;2.70;;;1.20;;
44670;SDS011;48397;53.016;-2.260;2023-02-03T14:34:39;7.10;;;1.20;;
44670;SDS011;48397;53.016;-2.260;2023-02-03T14:37:11;2.85;;;1.10;;
44670;SDS011;48397;53.016;-2.260;2023-02-03T14:42:55;3.28;;;0.80;;
44670;SDS011;48397;53.016;-2.260;2023-02-03T14:51:14;3.60;;;0.80;;
44670;SDS011;48397;53.016;-2.260;2023-02-03T14:56:42;2.90;;;1.10;;
44670;SDS011;48397;53.016;-2.260;2023-02-03T14:59:44;1.85;;;1.00;;
44670;SDS011;48397;53.016;-2.260;2023-02-03T15:02:18;1.63;;;1.13;;
44670;SDS011;48397;53.016;-2.260;2023-02-03T15:04:49;4.07;;;1.33;;
44670;SDS011;48397;53.016;-2.260;2023-02-03T15:07:32;4.20;;;1.00;;
44670;SDS011;48397;53.016;-2.260;2023-02-03T15:10:15;3.60;;;0.63;;
44670;SDS011;48397;53.016;-2.260;2023-02-03T15:12:52;3.05;;;1.00;;
44670;SDS011;48397;53.016;-2.260;2023-02-03T15:15:29;2.30;;;1.05;;
44670;SDS011;48397;53.016;-2.260;2023-02-03T15:18:17;2.78;;;0.90;;
44670;SDS011;48397;53.016;-2.260;2023-02-03T15:20:54;1.75;;;0.80;;
44670;SDS011;48397;53.016;-2.260;2023-02-03T15:23:27;3.63;;;0.90;;
44670;SDS011;48397;53.016;-2.260;2023-02-03T15:26:00;2.67;;;1.17;;
44670;SDS011;48397;53.016;-2.260;2023-02-03T15:28:29;2.65;;;0.90;;
44670;SDS011;48397;53.016;-2.260;2023-02-03T15:33:29;3.05;;;0.80;;
44670;SDS011;48397;53.016;-2.260;2023-02-03T15:36:07;0.52;;;0.45;;
44670;SDS011;48397;53.016;-2.260;2023-02-03T15:40:58;3.85;;;1.10;;
44670;SDS011;48397;53.016;-2.260;2023-02-03T15:43:30;2.13;;;0.80;;
44670;SDS011;48397;53.016;-2.260;2023-02-03T15:46:17;0.60;;;0.60;;
44670;SDS011;48397;53.016;-2.260;2023-02-03T15:48:53;1.52;;;0.68;;
44670;SDS011;48397;53.016;-2.260;2023-02-03T15:51:24;2.33;;;0.65;;
44670;SDS011;48397;53.016;-2.260;2023-02-03T15:53:57;2.15;;;0.75;;
44670;SDS011;48397;53.016;-2.260;2023-02-03T15:59:04;6.40;;;1.60;;
44670;SDS011;48397;53.016;-2.260;2023-02-03T16:01:32;4.30;;;1.42;;
44670;SDS011;48397;53.016;-2.260;2023-02-03T16:04:00;2.72;;;1.48;;
44670;SDS011;48397;53.016;-2.260;2023-02-03T16:09:05;5.30;;;1.85;;
44670;SDS011;48397;53.016;-2.260;2023-02-03T16:12:01;9.88;;;2.45;;
44670;SDS011;48397;53.016;-2.260;2023-02-03T16:14:36;5.68;;;1.70;;
44670;SDS011;48397;53.016;-2.260;2023-02-03T16:17:03;4.78;;;1.58;;
44670;SDS011;48397;53.016;-2.260;2023-02-03T16:19:32;4.78;;;1.33;;
44670;SDS011;48397;53.016;-2.260;2023-02-03T16:22:24;4.70;;;1.45;;
44670;SDS011;48397;53.016;-2.260;2023-02-03T16:24:55;7.57;;;1.30;;
44670;SDS011;48397;53.016;-2.260;2023-02-03T16:33:15;4.35;;;1.67;;
44670;SDS011;48397;53.016;-2.260;2023-02-03T16:36:09;4.22;;;0.90;;
44670;SDS011;48397;53.016;-2.260;2023-02-03T16:38:57;3.30;;;0.95;;
44670;SDS011;48397;53.016;-2.260;2023-02-03T16:41:46;5.68;;;1.27;;
44670;SDS011;48397;53.016;-2.260;2023-02-03T16:44:33;3.03;;;0.90;;
44670;SDS011;48397;53.016;-2.260;2023-02-03T16:50:17;4.85;;;1.13;;
44670;SDS011;48397;53.016;-2.260;2023-02-03T16:53:10;4.72;;;1.27;;
44670;SDS011;48397;53.016;-2.260;2023-02-03T16:55:40;6.75;;;1.48;;
44670;SDS011;48397;53.016;-2.260;2023-02-03T16:58:11;3.42;;;1.00;;
44670;SDS011;48397;53.016;-2.260;2023-02-03T17:00:39;6.35;;;1.50;;
44670;SDS011;48397;53.016;-2.260;2023-02-03T17:03:10;5.75;;;1.58;;
44670;SDS011;48397;53.016;-2.260;2023-02-03T17:05:41;5.75;;;1.83;;
44670;SDS011;48397;53.016;-2.260;2023-02-03T17:08:09;2.40;;;1.20;;
44670;SDS011;48397;53.016;-2.260;2023-02-03T17:10:39;7.00;;;1.88;;
44670;SDS011;48397;53.016;-2.260;2023-02-03T17:13:09;5.70;;;1.67;;
44670;SDS011;48397;53.016;-2.260;2023-02-03T17:15:39;6.32;;;2.08;;
44670;SDS011;48397;53.016;-2.260;2023-02-03T17:18:07;6.80;;;1.65;;
44670;SDS011;48397;53.016;-2.260;2023-02-03T17:20:35;5.15;;;2.17;;
44670;SDS011;48397;53.016;-2.260;2023-02-03T17:23:03;6.13;;;1.65;;
44670;SDS011;48397;53.016;-2.260;2023-02-03T17:25:31;5.13;;;1.88;;
44670;SDS011;48397;53.016;-2.260;2023-02-03T17:28:02;5.13;;;1.90;;
44670;SDS011;48397;53.016;-2.260;2023-02-03T17:30:30;6.75;;;1.55;;
44670;SDS011;48397;53.016;-2.260;2023-02-03T17:33:01;5.72;;;1.70;;
44670;SDS011;48397;53.016;-2.260;2023-02-03T17:35:42;4.70;;;1.60;;
44670;SDS011;48397;53.016;-2.260;2023-02-03T17:38:11;4.40;;;1.60;;
44670;SDS011;48397;53.016;-2.260;2023-02-03T17:40:40;5.45;;;1.30;;
44670;SDS011;48397;53.016;-2.260;2023-02-03T17:43:27;5.13;;;1.45;;
44670;SDS011;48397;53.016;-2.260;2023-02-03T17:46:23;5.80;;;1.60;;
44670;SDS011;48397;53.016;-2.260;2023-02-03T17:49:09;5.47;;;1.50;;
44670;SDS011;48397;53.016;-2.260;2023-02-03T17:51:54;4.80;;;1.70;;
44670;SDS011;48397;53.016;-2.260;2023-02-03T17:54:40;5.38;;;1.65;;
44670;SDS011;48397;53.016;-2.260;2023-02-03T17:57:08;6.28;;;1.65;;
44670;SDS011;48397;53.016;-2.260;2023-02-03T17:59:35;7.00;;;1.77;;
44670;SDS011;48397;53.016;-2.260;2023-02-03T18:04:31;6.60;;;1.63;;
44670;SDS011;48397;53.016;-2.260;2023-02-03T18:06:59;4.97;;;1.90;;
44670;SDS011;48397;53.016;-2.260;2023-02-03T18:09:27;5.38;;;1.70;;
44670;SDS011;48397;53.016;-2.260;2023-02-03T18:11:55;3.90;;;1.48;;
44670;SDS011;48397;53.016;-2.260;2023-02-03T18:14:22;4.07;;;2.17;;